createdAt,value
2018-12-27T00:01:26.912Z,150.85
2018-12-27T00:03:55.315Z,133.55
2018-12-27T00:06:23.720Z,128.87
2018-12-27T00:08:52.142Z,125.35
2018-12-27T00:11:20.536Z,144.55
2018-12-27T00:13:48.940Z,144.55
2018-12-27T00:16:17.358Z,136.47
2018-12-27T00:18:46.051Z,142.15
2018-12-27T00:21:14.506Z,121.17
2018-12-27T00:23:43.217Z,133.03
2018-12-27T00:26:11.623Z,135.00
2018-12-27T00:28:40.020Z,136.10
2018-12-27T00:31:08.562Z,143.62
2018-12-27T00:33:37.346Z,133.27
2018-12-27T00:36:05.871Z,131.03
2018-12-27T00:38:34.415Z,127.02
2018-12-27T00:41:03.198Z,142.55
2018-12-27T00:43:31.731Z,131.95
2018-12-27T00:46:00.514Z,121.15
2018-12-27T00:48:29.042Z,126.75
2018-12-27T00:50:57.575Z,124.92
2018-12-27T00:53:26.120Z,128.87
2018-12-27T00:55:54.647Z,128.97
2018-12-27T00:58:23.169Z,127.07
2018-12-27T01:00:51.715Z,134.43
2018-12-27T01:03:20.247Z,129.82
2018-12-27T01:05:48.779Z,137.22
2018-12-27T01:08:17.380Z,134.85
2018-12-27T01:10:45.907Z,128.53
2018-12-27T01:13:14.437Z,130.60
2018-12-27T01:15:42.979Z,134.25
2018-12-27T01:18:11.502Z,138.57
2018-12-27T01:20:40.048Z,135.93
2018-12-27T01:23:27.832Z,145.55
2018-12-27T01:25:56.379Z,128.35
2018-12-27T01:28:24.912Z,132.60
2018-12-27T01:30:53.494Z,131.27
2018-12-27T01:33:22.044Z,139.97
2018-12-27T01:35:50.570Z,117.35
2018-12-27T01:38:19.099Z,133.82
2018-12-27T01:40:47.647Z,133.57
2018-12-27T01:43:16.177Z,121.45
2018-12-27T01:45:45.008Z,137.03
2018-12-27T01:48:13.952Z,138.43
2018-12-27T01:50:42.795Z,140.30
2018-12-27T01:53:11.580Z,124.12
2018-12-27T01:55:40.365Z,118.42
2018-12-27T01:58:08.909Z,140.20
2018-12-27T02:00:37.443Z,144.47
2018-12-27T02:03:05.967Z,127.82
2018-12-27T02:05:54.057Z,135.57
2018-12-27T02:08:22.844Z,121.33
2018-12-27T02:10:51.430Z,119.75
2018-12-27T02:13:20.027Z,119.08
2018-12-27T02:15:48.794Z,115.62
2018-12-27T02:18:17.343Z,130.85
2018-12-27T02:20:45.880Z,129.03
2018-12-27T02:23:14.408Z,132.25
2018-12-27T02:25:42.964Z,126.60
2018-12-27T02:28:11.563Z,115.10
2018-12-27T02:30:40.150Z,130.87
2018-12-27T02:33:08.704Z,137.97
2018-12-27T02:35:37.297Z,126.75
2018-12-27T02:38:05.835Z,130.67
2018-12-27T02:40:53.707Z,123.38
2018-12-27T02:43:22.239Z,116.22
2018-12-27T02:45:50.839Z,137.68
2018-12-27T02:48:19.678Z,109.48
2018-12-27T02:50:48.202Z,110.80
2018-12-27T02:53:16.734Z,133.07
2018-12-27T02:55:45.550Z,141.37
2018-12-27T02:58:14.325Z,117.45
2018-12-27T03:00:42.854Z,127.17
2018-12-27T03:03:11.712Z,133.22
2018-12-27T03:05:40.506Z,126.82
2018-12-27T03:08:09.051Z,133.22
2018-12-27T03:10:37.652Z,122.20
2018-12-27T03:13:06.174Z,124.65
2018-12-27T03:15:36.282Z,120.65
2018-12-27T03:18:04.817Z,113.57
2018-12-27T03:20:33.347Z,126.60
2018-12-27T03:23:22.240Z,109.63
2018-12-27T03:25:51.084Z,116.15
2018-12-27T03:28:19.926Z,110.83
2018-12-27T03:30:48.478Z,121.87
2018-12-27T03:33:16.993Z,129.20
2018-12-27T03:35:45.841Z,112.83
2018-12-27T03:38:14.428Z,113.25
2018-12-27T03:40:42.964Z,116.88
2018-12-27T03:43:11.511Z,128.53
2018-12-27T03:45:40.380Z,123.62
2018-12-27T03:48:09.259Z,127.65
2018-12-27T03:50:37.810Z,112.52
2018-12-27T03:53:06.635Z,121.40
2018-12-27T03:55:35.166Z,118.02
2018-12-27T03:58:03.692Z,116.08
2018-12-27T04:00:32.253Z,113.47
2018-12-27T04:03:00.774Z,111.57
2018-12-27T04:05:29.650Z,111.85
2018-12-27T04:07:58.196Z,121.17
2018-12-27T04:10:26.733Z,116.50
2018-12-27T04:12:55.603Z,113.68
2018-12-27T04:15:24.297Z,108.90
2018-12-27T04:17:52.694Z,130.52
2018-12-27T04:20:21.092Z,122.47
2018-12-27T04:22:49.519Z,111.08
2018-12-27T04:25:18.048Z,111.90
2018-12-27T04:27:46.444Z,123.00
2018-12-27T04:30:15.280Z,124.22
2018-12-27T04:32:44.822Z,113.08
2018-12-27T04:35:13.293Z,124.95
2018-12-27T04:37:41.706Z,111.62
2018-12-27T04:40:10.104Z,110.28
2018-12-27T04:42:39.328Z,102.17
2018-12-27T04:45:07.746Z,109.30
2018-12-27T04:47:36.492Z,105.35
2018-12-27T04:50:05.663Z,101.65
2018-12-27T04:52:34.072Z,112.20
2018-12-27T04:55:02.481Z,110.70
2018-12-27T04:57:30.893Z,108.37
2018-12-27T04:59:59.611Z,108.87
2018-12-27T05:02:28.316Z,110.25
2018-12-27T05:04:56.983Z,100.90
2018-12-27T05:07:25.402Z,105.58
2018-12-27T05:09:53.799Z,109.22
2018-12-27T05:12:22.197Z,108.92
2018-12-27T05:14:50.915Z,105.92
2018-12-27T05:17:19.315Z,104.07
2018-12-27T05:19:47.733Z,104.97
2018-12-27T05:22:16.134Z,104.30
2018-12-27T05:24:44.537Z,128.00
2018-12-27T05:27:12.947Z,96.53
2018-12-27T05:29:41.404Z,112.35
2018-12-27T05:32:09.799Z,97.97
2018-12-27T05:34:38.283Z,100.62
2018-12-27T05:37:06.686Z,119.05
2018-12-27T05:39:35.086Z,102.05
2018-12-27T05:42:03.495Z,99.83
2018-12-27T05:44:31.902Z,89.77
2018-12-27T05:47:00.651Z,98.12
2018-12-27T05:49:29.344Z,90.75
2018-12-27T05:51:57.740Z,94.97
2018-12-27T05:54:26.158Z,90.05
2018-12-27T05:56:54.549Z,87.25
2018-12-27T05:59:23.261Z,97.08
2018-12-27T06:01:51.675Z,83.95
2018-12-27T06:04:20.142Z,92.40
2018-12-27T06:06:48.463Z,96.37
2018-12-27T06:09:17.186Z,97.47
2018-12-27T06:11:45.871Z,90.65
2018-12-27T06:14:14.284Z,95.20
2018-12-27T06:16:42.685Z,115.75
2018-12-27T06:19:11.417Z,110.65
2018-12-27T06:21:39.836Z,101.12
2018-12-27T06:24:08.230Z,99.15
2018-12-27T06:26:36.624Z,93.40
2018-12-27T06:29:05.035Z,97.57
2018-12-27T06:31:33.454Z,97.75
2018-12-27T06:34:01.848Z,95.90
2018-12-27T06:36:30.481Z,98.97
2018-12-27T06:38:58.985Z,109.32
2018-12-27T06:41:27.368Z,96.37
2018-12-27T06:43:55.781Z,95.25
2018-12-27T06:46:24.177Z,88.65
2018-12-27T06:48:52.569Z,91.65
2018-12-27T06:51:21.262Z,90.75
2018-12-27T06:53:49.662Z,100.55
2018-12-27T06:56:18.060Z,87.45
2018-12-27T06:58:46.806Z,92.95
2018-12-27T07:01:15.205Z,89.65
2018-12-27T07:03:43.870Z,97.20
2018-12-27T07:06:12.287Z,86.87
2018-12-27T07:08:40.941Z,98.87
2018-12-27T07:11:09.352Z,90.47
2018-12-27T07:13:38.101Z,99.90
2018-12-27T07:16:06.500Z,107.75
2018-12-27T07:18:34.892Z,99.32
2018-12-27T07:21:03.365Z,107.27
2018-12-27T07:23:31.765Z,111.80
2018-12-27T07:26:00.510Z,101.95
2018-12-27T07:28:28.938Z,103.35
2018-12-27T07:30:57.573Z,91.67
2018-12-27T07:33:26.277Z,110.03
2018-12-27T07:35:54.946Z,101.78
2018-12-27T07:38:23.396Z,98.75
2018-12-27T07:40:52.116Z,108.12
2018-12-27T07:43:20.533Z,101.58
2018-12-27T07:45:48.931Z,109.83
2018-12-27T07:48:17.661Z,101.78
2018-12-27T07:50:46.552Z,96.67
2018-12-27T07:53:14.960Z,96.15
2018-12-27T07:55:43.372Z,96.02
2018-12-27T07:58:12.104Z,91.12
2018-12-27T08:00:40.515Z,105.83
2018-12-27T08:03:08.907Z,92.75
2018-12-27T08:05:37.318Z,94.32
2018-12-27T08:08:05.725Z,101.10
2018-12-27T08:10:34.411Z,92.35
2018-12-27T08:13:02.807Z,83.82
2018-12-27T08:15:31.219Z,93.35
2018-12-27T08:17:59.611Z,82.70
2018-12-27T08:20:28.007Z,88.17
2018-12-27T08:22:56.419Z,94.42
2018-12-27T08:25:24.814Z,95.90
2018-12-27T08:27:53.599Z,79.07
2018-12-27T08:30:22.258Z,83.62
2018-12-27T08:32:50.952Z,79.12
2018-12-27T08:35:19.348Z,78.67
2018-12-27T08:37:47.754Z,78.65
2018-12-27T08:40:16.149Z,80.90
2018-12-27T08:42:44.858Z,80.00
2018-12-27T08:45:13.272Z,85.60
2018-12-27T08:47:41.924Z,86.63
2018-12-27T08:50:10.319Z,85.55
2018-12-27T08:52:38.787Z,70.45
2018-12-27T08:55:07.252Z,74.70
2018-12-27T08:57:35.952Z,75.55
2018-12-27T09:00:06.887Z,73.62
2018-12-27T09:02:35.570Z,86.02
2018-12-27T09:05:04.361Z,89.95
2018-12-27T09:07:32.773Z,71.35
2018-12-27T09:10:01.163Z,78.05
2018-12-27T09:12:29.551Z,70.62
2018-12-27T09:14:58.017Z,90.25
2018-12-27T09:17:26.411Z,76.45
2018-12-27T09:19:54.802Z,88.92
2018-12-27T09:22:23.265Z,75.00
2018-12-27T09:24:51.667Z,82.05
2018-12-27T09:27:20.061Z,80.32
2018-12-27T09:29:48.467Z,76.80
2018-12-27T09:32:17.143Z,87.78
2018-12-27T09:34:45.831Z,81.15
2018-12-27T09:37:14.514Z,85.22
2018-12-27T09:39:43.196Z,93.12
2018-12-27T09:42:11.887Z,81.57
2018-12-27T09:44:40.287Z,84.58
2018-12-27T09:47:08.688Z,93.70
2018-12-27T09:49:37.324Z,94.58
2018-12-27T09:52:05.731Z,97.60
2018-12-27T09:54:34.394Z,92.12
2018-12-27T09:57:03.090Z,90.03
2018-12-27T09:59:31.485Z,84.10
2018-12-27T10:01:59.893Z,83.25
2018-12-27T10:04:28.280Z,79.97
2018-12-27T10:06:57.004Z,79.30
2018-12-27T10:09:25.411Z,81.50
2018-12-27T10:11:54.912Z,85.10
2018-12-27T10:14:23.323Z,77.05
2018-12-27T10:16:52.053Z,83.95
2018-12-27T10:19:20.744Z,76.53
2018-12-27T10:21:49.147Z,82.82
2018-12-27T10:24:17.534Z,89.83
2018-12-27T10:26:46.169Z,81.08
2018-12-27T10:29:14.571Z,84.83
2018-12-27T10:31:42.965Z,83.07
2018-12-27T10:34:11.625Z,81.82
2018-12-27T10:36:40.882Z,86.20
2018-12-27T10:39:09.613Z,77.67
2018-12-27T10:41:38.008Z,82.57
2018-12-27T10:44:06.488Z,80.42
2018-12-27T10:46:34.877Z,79.60
2018-12-27T10:49:03.640Z,85.75
2018-12-27T10:51:32.325Z,81.72
2018-12-27T10:54:01.013Z,70.72
2018-12-27T10:56:29.405Z,70.35
2018-12-27T10:58:57.810Z,87.82
2018-12-27T11:01:26.200Z,74.75
2018-12-27T11:03:54.590Z,80.72
2018-12-27T11:06:22.997Z,76.07
2018-12-27T11:08:51.398Z,72.37
2018-12-27T11:11:20.074Z,81.30
2018-12-27T11:13:48.481Z,75.85
2018-12-27T11:16:17.136Z,73.52
2018-12-27T11:18:45.590Z,78.80
2018-12-27T11:21:13.998Z,75.65
2018-12-27T11:23:42.392Z,78.22
2018-12-27T11:26:10.779Z,79.32
2018-12-27T11:28:39.186Z,73.02
2018-12-27T11:31:07.576Z,71.05
2018-12-27T11:33:35.966Z,70.42
2018-12-27T11:36:04.685Z,79.67
2018-12-27T11:38:33.366Z,70.90
2018-12-27T11:41:05.461Z,73.85
2018-12-27T11:43:34.410Z,73.33
2018-12-27T11:46:03.116Z,66.30
2018-12-27T11:48:31.503Z,72.50
2018-12-27T11:50:59.962Z,71.95
2018-12-27T11:53:28.350Z,74.00
2018-12-27T11:55:56.738Z,83.37
2018-12-27T11:58:25.157Z,76.07
2018-12-27T12:00:53.895Z,82.70
2018-12-27T12:03:22.580Z,84.92
2018-12-27T12:05:50.981Z,72.32
2018-12-27T12:08:19.385Z,72.90
2018-12-27T12:10:47.771Z,75.83
2018-12-27T12:13:16.162Z,75.83
2018-12-27T12:15:44.568Z,67.90
2018-12-27T12:18:13.261Z,67.75
2018-12-27T12:20:41.734Z,74.82
2018-12-27T12:23:10.140Z,65.22
2018-12-27T12:25:38.526Z,75.15
2018-12-27T12:28:06.916Z,70.95
2018-12-27T12:30:35.556Z,66.60
2018-12-27T12:33:04.699Z,69.40
2018-12-27T12:35:33.082Z,66.65
2018-12-27T12:38:01.758Z,69.42
2018-12-27T12:40:30.150Z,63.05
2018-12-27T12:43:00.220Z,69.77
2018-12-27T12:45:28.912Z,69.47
2018-12-27T12:47:57.423Z,64.12
2018-12-27T12:50:25.778Z,70.67
2018-12-27T12:52:54.453Z,66.82
2018-12-27T12:55:22.844Z,66.55
2018-12-27T12:57:51.238Z,74.80
2018-12-27T13:00:19.885Z,72.20
2018-12-27T13:02:48.810Z,65.60
2018-12-27T13:05:17.250Z,72.55
2018-12-27T13:07:45.665Z,72.78
2018-12-27T13:10:14.349Z,66.65
2018-12-27T13:12:43.010Z,62.83
2018-12-27T13:15:11.421Z,67.15
2018-12-27T13:17:40.882Z,56.48
2018-12-27T13:20:09.694Z,62.93
2018-12-27T13:22:38.097Z,66.25
2018-12-27T13:25:06.964Z,61.63
2018-12-27T13:27:35.355Z,64.90
2018-12-27T13:30:04.645Z,67.62
2018-12-27T13:32:33.328Z,60.78
2018-12-27T13:35:01.722Z,62.67
2018-12-27T13:37:30.135Z,59.95
2018-12-27T13:39:58.530Z,72.25
2018-12-27T13:42:27.266Z,60.25
2018-12-27T13:44:55.666Z,61.80
2018-12-27T13:47:24.241Z,70.40
2018-12-27T13:49:52.896Z,70.50
2018-12-27T13:52:21.358Z,68.05
2018-12-27T13:54:50.068Z,77.30
2018-12-27T13:57:18.710Z,71.50
2018-12-27T13:59:47.112Z,80.70
2018-12-27T14:02:15.816Z,72.80
2018-12-27T14:04:44.219Z,67.92
2018-12-27T14:07:12.879Z,72.75
2018-12-27T14:09:41.272Z,75.80
2018-12-27T14:12:09.944Z,78.00
2018-12-27T14:14:38.395Z,76.55
2018-12-27T14:17:06.793Z,82.42
2018-12-27T14:19:35.204Z,75.47
2018-12-27T14:22:03.873Z,84.50
2018-12-27T14:24:32.275Z,86.90
2018-12-27T14:27:01.427Z,99.25
2018-12-27T14:29:30.135Z,92.60
2018-12-27T14:31:58.763Z,96.12
2018-12-27T14:34:27.506Z,103.65
2018-12-27T14:36:55.922Z,112.90
2018-12-27T14:39:24.572Z,108.20
2018-12-27T14:41:52.973Z,110.80
2018-12-27T14:44:21.382Z,102.02
2018-12-27T14:46:49.773Z,107.12
2018-12-27T14:49:18.497Z,113.08
2018-12-27T14:51:46.890Z,115.80
2018-12-27T14:54:15.287Z,128.68
2018-12-27T14:56:43.697Z,123.22
2018-12-27T14:59:12.420Z,135.30
2018-12-27T15:01:41.102Z,126.85
2018-12-27T15:04:09.792Z,123.38
2018-12-27T15:06:38.203Z,130.90
2018-12-27T15:09:07.170Z,120.47
2018-12-27T15:11:35.846Z,127.70
2018-12-27T15:14:04.244Z,133.72
2018-12-27T15:16:32.925Z,119.62
2018-12-27T15:19:01.336Z,123.53
2018-12-27T15:21:29.730Z,140.22
2018-12-27T15:23:58.123Z,118.00
2018-12-27T15:26:26.838Z,123.78
2018-12-27T15:28:55.235Z,127.35
2018-12-27T15:31:23.659Z,134.87
2018-12-27T15:33:52.202Z,122.33
2018-12-27T15:36:20.578Z,130.37
2018-12-27T15:38:48.934Z,124.15
2018-12-27T15:41:36.724Z,126.50
2018-12-27T15:44:05.392Z,129.50
2018-12-27T15:46:33.785Z,133.90
2018-12-27T15:49:02.457Z,129.05
2018-12-27T15:51:30.851Z,142.98
2018-12-27T15:53:59.243Z,141.47
2018-12-27T15:56:27.655Z,135.28
2018-12-27T15:58:56.391Z,124.20
2018-12-27T16:01:25.169Z,123.47
2018-12-27T16:03:53.581Z,141.47
2018-12-27T16:06:21.975Z,125.47
2018-12-27T16:08:50.366Z,132.12
2018-12-27T16:11:18.775Z,126.67
2018-12-27T16:13:47.179Z,135.37
2018-12-27T16:16:15.574Z,129.80
2018-12-27T16:18:44.231Z,125.12
2018-12-27T16:21:12.918Z,154.05
2018-12-27T16:23:41.602Z,124.78
2018-12-27T16:26:10.009Z,113.17
2018-12-27T16:28:38.402Z,124.85
2018-12-27T16:34:20.995Z,123.07
2018-12-27T16:36:49.676Z,138.80
2018-12-27T16:39:18.368Z,115.20
2018-12-27T16:41:46.777Z,125.75
2018-12-27T16:44:15.429Z,113.15
2018-12-27T16:46:43.824Z,119.37
2018-12-27T16:49:12.289Z,117.03
2018-12-27T16:51:40.978Z,121.22
2018-12-27T16:54:09.661Z,121.77
2018-12-27T16:56:38.118Z,117.75
2018-12-27T16:59:06.758Z,103.32
2018-12-27T17:01:35.121Z,114.55
2018-12-27T17:04:03.525Z,124.97
2018-12-27T17:06:31.918Z,129.57
2018-12-27T17:09:00.653Z,124.33
2018-12-27T17:11:29.045Z,120.80
2018-12-27T17:13:57.722Z,116.57
2018-12-27T17:16:26.405Z,112.90
2018-12-27T17:19:14.134Z,111.15
2018-12-27T17:21:42.541Z,119.25
2018-12-27T17:24:11.198Z,115.52
2018-12-27T17:26:39.891Z,122.10
2018-12-27T17:29:08.301Z,114.12
2018-12-27T17:31:36.700Z,120.75
2018-12-27T17:34:05.097Z,124.62
2018-12-27T17:36:33.501Z,133.07
2018-12-27T17:39:01.899Z,133.15
2018-12-27T17:41:30.565Z,128.27
2018-12-27T17:43:59.225Z,144.43
2018-12-27T17:46:27.638Z,108.83
2018-12-27T17:48:56.029Z,118.67
2018-12-27T17:51:24.426Z,120.60
2018-12-27T17:53:52.843Z,132.35
2018-12-27T17:56:21.239Z,125.92
2018-12-27T17:58:49.874Z,122.47
2018-12-27T18:01:18.286Z,119.62
2018-12-27T18:03:47.013Z,120.17
2018-12-27T18:06:15.417Z,139.52
2018-12-27T18:08:43.886Z,135.37
2018-12-27T18:11:12.287Z,126.35
2018-12-27T18:13:40.684Z,142.75
2018-12-27T18:16:09.521Z,148.85
2018-12-27T18:18:37.918Z,137.25
2018-12-27T18:21:06.315Z,140.82
2018-12-27T18:23:34.738Z,120.65
2018-12-27T18:26:03.130Z,150.42
2018-12-27T18:28:31.809Z,142.28
2018-12-27T18:31:00.227Z,130.43
2018-12-27T18:33:28.627Z,139.90
2018-12-27T18:35:57.356Z,136.07
2018-12-27T18:38:25.773Z,149.87
2018-12-27T18:40:54.166Z,155.25
2018-12-27T18:43:22.902Z,162.07
2018-12-27T18:46:10.760Z,162.27
2018-12-27T18:48:39.672Z,142.90
2018-12-27T18:51:08.209Z,147.47
2018-12-27T18:53:36.734Z,138.20
2018-12-27T18:56:05.068Z,154.45
2018-12-27T18:58:33.498Z,161.10
2018-12-27T19:01:01.881Z,138.22
2018-12-27T19:03:30.274Z,152.55
2018-12-27T19:06:06.371Z,165.85
2018-12-27T19:08:34.767Z,144.25
2018-12-27T19:11:42.019Z,159.25
2018-12-27T19:14:10.410Z,144.68
2018-12-27T19:16:38.807Z,149.42
2018-12-27T19:19:07.484Z,156.18
2018-12-27T19:22:15.799Z,155.30
2018-12-27T19:24:44.212Z,157.75
2018-12-27T19:27:12.611Z,145.53
2018-12-27T19:29:41.341Z,156.10
2018-12-27T19:32:09.812Z,183.60
2018-12-27T19:34:38.227Z,178.18
2018-12-27T19:37:06.617Z,161.77
2018-12-27T19:39:35.013Z,157.97
2018-12-27T19:42:03.486Z,145.72
2018-12-27T19:44:31.825Z,165.25
2018-12-27T19:47:00.223Z,178.68
2018-12-27T19:49:28.628Z,152.35
2018-12-27T19:51:57.022Z,163.15
2018-12-27T19:54:31.729Z,154.70
2018-12-27T19:56:55.542Z,168.72
2018-12-27T19:59:43.276Z,169.70
2018-12-27T20:02:11.694Z,158.25
2018-12-27T20:04:40.082Z,154.38
2018-12-27T20:10:02.916Z,176.40
2018-12-27T20:12:31.316Z,154.38
2018-12-27T20:14:59.710Z,170.72
2018-12-27T20:17:28.122Z,184.82
2018-12-27T20:20:15.863Z,148.53
2018-12-27T20:22:44.281Z,146.37
2018-12-27T20:25:12.680Z,160.75
2018-12-27T20:27:41.334Z,156.52
2018-12-27T20:30:09.747Z,172.98
2018-12-27T20:32:38.138Z,162.22
2018-12-27T20:35:06.788Z,147.93
2018-12-27T20:37:35.420Z,150.30
2018-12-27T20:43:11.899Z,152.60
2018-12-27T20:45:40.633Z,155.57
2018-12-27T20:48:09.030Z,147.80
2018-12-27T20:50:37.442Z,144.90
2018-12-27T20:53:06.178Z,139.70
2018-12-27T20:55:53.938Z,149.40
2018-12-27T20:58:22.598Z,148.57
2018-12-27T21:00:51.234Z,140.47
2018-12-27T21:03:19.989Z,155.55
2018-12-27T21:06:07.702Z,145.72
2018-12-27T21:08:36.110Z,154.60
2018-12-27T21:11:04.745Z,144.85
2018-12-27T21:13:33.467Z,163.52
2018-12-27T21:16:02.141Z,148.38
2018-12-27T21:18:30.826Z,142.03
2018-12-27T21:20:59.517Z,161.12
2018-12-27T21:23:28.197Z,146.68
2018-12-27T21:25:56.589Z,160.85
2018-12-27T21:28:25.047Z,177.62
2018-12-27T21:30:53.455Z,147.80
2018-12-27T21:33:21.846Z,157.15
2018-12-27T21:35:50.504Z,153.90
2018-12-27T21:38:21.494Z,160.25
2018-12-27T21:40:49.272Z,158.15
2018-12-27T21:43:17.670Z,156.52
2018-12-27T21:45:46.370Z,155.93
2018-12-27T21:48:14.768Z,160.25
2018-12-27T21:50:43.436Z,148.05
2018-12-27T21:53:11.855Z,167.07
2018-12-27T21:55:40.253Z,161.80
2018-12-27T21:58:08.651Z,154.15
2018-12-27T22:00:37.064Z,168.30
2018-12-27T22:03:05.461Z,156.00
2018-12-27T22:05:33.912Z,166.15
2018-12-27T22:08:02.329Z,170.20
2018-12-27T22:10:30.726Z,159.90
2018-12-27T22:12:59.131Z,167.62
2018-12-27T22:15:27.839Z,168.15
2018-12-27T22:17:56.233Z,169.07
2018-12-27T22:20:24.913Z,159.32
2018-12-27T22:22:53.323Z,166.53
2018-12-27T22:25:21.722Z,176.60
2018-12-27T22:27:50.118Z,155.40
2018-12-27T22:30:18.531Z,161.07
2018-12-27T22:32:47.206Z,150.32
2018-12-27T22:35:15.610Z,152.87
2018-12-27T22:37:44.373Z,172.90
2018-12-27T22:40:12.776Z,154.27
2018-12-27T22:42:41.169Z,156.18
2018-12-27T22:45:09.579Z,164.32
2018-12-27T22:47:37.995Z,155.63
2018-12-27T22:50:25.743Z,166.80
2018-12-27T22:52:54.147Z,152.40
2018-12-27T22:56:02.519Z,155.80
2018-12-27T22:58:31.163Z,139.60
2018-12-27T23:00:59.632Z,151.35
2018-12-27T23:03:28.047Z,143.78
2018-12-27T23:05:56.452Z,153.62
2018-12-27T23:08:25.091Z,144.75
2018-12-27T23:10:53.813Z,150.35
2018-12-27T23:13:22.218Z,150.65
2018-12-27T23:15:50.615Z,150.18
2018-12-27T23:18:19.027Z,136.60
2018-12-27T23:20:47.744Z,141.07
2018-12-27T23:23:16.134Z,139.82
2018-12-27T23:25:44.801Z,129.97
2018-12-27T23:28:13.465Z,144.80
2018-12-27T23:30:41.863Z,146.25
2018-12-27T23:33:10.556Z,147.60
2018-12-27T23:35:39.113Z,156.52
2018-12-27T23:38:07.825Z,146.72
2018-12-27T23:40:36.249Z,148.17
2018-12-27T23:43:04.646Z,155.15
2018-12-27T23:45:33.054Z,140.07
2018-12-27T23:48:01.458Z,160.35
2018-12-27T23:50:49.216Z,149.18
2018-12-27T23:53:17.633Z,158.03
2018-12-27T23:55:46.035Z,152.00
2018-12-27T23:58:14.492Z,151.07
